Time Latitude Longitude Accuracy (66% radius in meters) Altitude (meters) Speed (km/hour) Bearing (degrees) Battery (%) GPS flag
06:49:50 57.205303 60.115380 0 0 0 0 1 delete
06:49:49 57.205313 60.115355 0 0 0 0 1 delete
06:49:48 57.205325 60.115325 0 0 0 0 1 delete
06:49:47 57.205330 60.115298 0 0 0 0 1 delete
06:49:46 57.205330 60.115277 0 0 0 0 1 delete
06:49:45 57.205323 60.115248 0 0 0 0 1 delete
06:49:44 57.205307 60.115225 0 0 0 0 1 delete
06:49:43 57.205283 60.115217 0 0 0 0 1 delete
06:49:42 57.205258 60.115227 0 0 0 0 1 delete
06:49:41 57.205237 60.115237 0 0 0 0 1 delete
06:49:40 57.205222 60.115235 0 0 0 0 1 delete
06:49:39 57.205212 60.115227 0 0 0 0 1 delete
06:49:38 57.205203 60.115210 0 0 0 0 1 delete
06:49:37 57.205200 60.115195 0 0 0 0 1 delete
06:49:36 57.205193 60.115183 0 0 0 0 1 delete
06:49:35 57.205190 60.115175 0 0 0 0 1 delete
06:49:34 57.205190 60.115160 0 0 0 0 1 delete
06:49:33 57.205195 60.115142 0 0 0 0 1 delete
06:49:32 57.205202 60.115112 0 0 0 0 1 delete
06:49:31 57.205200 60.115080 0 0 0 0 1 delete
06:49:30 57.205193 60.115047 0 0 0 0 1 delete
06:49:29 57.205190 60.115008 0 0 0 0 1 delete
06:49:28 57.205183 60.114977 0 0 0 0 1 delete
06:49:27 57.205180 60.114950 0 0 0 0 1 delete
06:49:26 57.205173 60.114908 0 0 0 0 1 delete
06:49:25 57.205163 60.114873 0 0 0 0 1 delete
06:49:24 57.205160 60.114848 0 0 0 0 1 delete
06:49:23 57.205153 60.114812 0 0 0 0 1 delete
06:49:22 57.205147 60.114778 0 0 0 0 1 delete
06:49:21 57.205143 60.114752 0 0 0 0 1 delete
06:49:20 57.205142 60.114717 0 0 0 0 1 delete
06:49:19 57.205143 60.114668 0 0 0 0 1 delete
06:49:18 57.205138 60.114625 0 0 0 0 1 delete
06:49:17 57.205130 60.114585 0 0 0 0 1 delete
06:49:16 57.205125 60.114535 0 0 0 0 1 delete
06:49:15 57.205117 60.114483 0 0 0 0 1 delete
06:49:14 57.205098 60.114447 0 0 0 0 1 delete
06:49:13 57.205078 60.114420 0 0 0 0 1 delete
06:49:12 57.205053 60.114425 0 0 0 0 1 delete
06:49:11 57.205032 60.114453 0 0 0 0 1 delete
06:49:10 57.205012 60.114470 0 0 0 0 1 delete
06:49:09 57.204992 60.114488 0 0 0 0 1 delete
06:49:08 57.204972 60.114485 0 0 0 0 1 delete
06:49:07 57.204957 60.114483 0 0 0 0 1 delete
06:49:06 57.204945 60.114483 0 0 0 0 1 delete
06:49:05 57.204933 60.114478 0 0 0 0 1 delete
06:49:04 57.204927 60.114467 0 0 0 0 1 delete
06:49:03 57.204918 60.114457 0 0 0 0 1 delete
06:49:02 57.204918 60.114458 0 0 0 0 1 delete
06:49:01 57.204917 60.114458 0 0 0 0 1 delete